首页
METAR-TAF:

METAR-TAF

机场 :

Büchel, 德国

纬度: 50-10N, 经度: 007-04E, 海拔: 478米

当前天气观测

该预报发布于54分钟前的11:20 UTC
风速6节,风向西南
温度 10°C
湿度 76%
气压 1010 hPa
能见度10公里或以上
散云层高于1800英尺
多云层高于8000英尺

METAR: ETSB 281120Z 22006KT 9999 SCT018 BKN080 10/06 Q1010 BLU BLU TEMPO GRN

时间: 14:14 (12:14 UTC)

预报

该预报发布于1小时和54分钟前的10:20 UTC
预报有效从28日的 11点(UTC)到 28日的 20点(UTC)
风速5节,风向西南
能见度10公里或以上
散云层高于2000英尺
多云层高于10000英尺
短暂存在
从 28日的 11点(UTC)到 28日的 14点(UTC)
风速8节,风向西南
能見度: 4000
多云层高于1000英尺
成为
从 28日的 14点(UTC)到 28日的 16点(UTC)
风速8节,风向西南
能見度: 5000
多云层高于500英尺
小毛毛雨
短暂存在
从 28日的 14点(UTC)到 28日的 20点(UTC)
风速7节,风向西南
能見度: 1000
阴天层高于100英尺
毛毛雨, 雨

TAF: ETSB 281020Z 2811/2820 23005KT 9999 NSW SCT020 BKN100 TEMPO 2811/2814 22008KT 4000 RA BKN010 BECMG 2814/2816 22008KT 5000 -DZ BKN005 TEMPO 2814/2820 22007KT 1000 DZRA OVC001 BY ETGL

超过4000个机场的气象观测和天气预报(METAR&TAF报告)。

可查询的气象台以黄色和红色小点在地图上表示。

将鼠标移到小点上方,可查看气象台名称。

然后点击查看天气观测和预报。

如需切换地图:点击带黑十字的绿色按钮放大地图;点击带横线的绿色按钮缩小地图;或者点击绿色箭头查看邻近地区的地图。


METAR-TAF: